sensor_id;sensor_type;location;lat;lon;timestamp;pressure;altitude;pressure_sealevel;temperature;humidity
41044;BME280;51680;49.806;18.774;2023-09-18T00:01:50;97540.00;;;21.41;73.41
41044;BME280;51680;49.806;18.774;2023-09-18T00:04:53;97530.84;;;21.35;73.46
41044;BME280;51680;49.806;18.774;2023-09-18T00:07:54;97533.66;;;21.34;73.41
41044;BME280;51680;49.806;18.774;2023-09-18T00:10:56;97525.69;;;21.26;73.67
41044;BME280;51680;49.806;18.774;2023-09-18T00:13:58;97524.34;;;21.22;73.91
41044;BME280;51680;49.806;18.774;2023-09-18T00:17:00;97528.31;;;21.18;73.91
41044;BME280;51680;49.806;18.774;2023-09-18T00:20:04;97515.19;;;21.16;74.04
41044;BME280;51680;49.806;18.774;2023-09-18T00:23:08;97513.38;;;21.25;73.68
41044;BME280;51680;49.806;18.774;2023-09-18T00:26:09;97510.91;;;21.23;73.85
41044;BME280;51680;49.806;18.774;2023-09-18T00:29:11;97521.00;;;21.20;74.31
41044;BME280;51680;49.806;18.774;2023-09-18T00:32:31;97523.00;;;21.18;74.09
41044;BME280;51680;49.806;18.774;2023-09-18T00:35:35;97518.38;;;21.28;73.96
41044;BME280;51680;49.806;18.774;2023-09-18T00:38:37;97513.06;;;21.28;73.76
41044;BME280;51680;49.806;18.774;2023-09-18T00:41:38;97507.75;;;21.28;73.98
41044;BME280;51680;49.806;18.774;2023-09-18T00:44:41;97516.38;;;21.30;73.84
41044;BME280;51680;49.806;18.774;2023-09-18T00:47:43;97516.22;;;21.23;74.13
41044;BME280;51680;49.806;18.774;2023-09-18T00:50:46;97515.38;;;21.23;73.96
41044;BME280;51680;49.806;18.774;2023-09-18T00:53:50;97511.22;;;21.20;74.16
41044;BME280;51680;49.806;18.774;2023-09-18T00:56:53;97508.72;;;21.19;74.07
41044;BME280;51680;49.806;18.774;2023-09-18T00:59:55;97513.03;;;21.12;74.38
41044;BME280;51680;49.806;18.774;2023-09-18T01:02:57;97511.97;;;20.97;74.65
41044;BME280;51680;49.806;18.774;2023-09-18T01:06:00;97519.09;;;20.96;74.68
41044;BME280;51680;49.806;18.774;2023-09-18T01:09:02;97515.94;;;21.01;74.77
41044;BME280;51680;49.806;18.774;2023-09-18T01:12:09;97511.63;;;21.00;74.61
41044;BME280;51680;49.806;18.774;2023-09-18T01:15:18;97506.66;;;20.97;74.61
41044;BME280;51680;49.806;18.774;2023-09-18T01:18:24;97514.28;;;21.00;74.54
41044;BME280;51680;49.806;18.774;2023-09-18T01:21:27;97510.31;;;21.04;74.30
41044;BME280;51680;49.806;18.774;2023-09-18T01:24:30;97507.31;;;20.99;74.37
41044;BME280;51680;49.806;18.774;2023-09-18T01:27:32;97505.97;;;20.95;74.52
41044;BME280;51680;49.806;18.774;2023-09-18T01:30:34;97510.47;;;20.94;74.74
41044;BME280;51680;49.806;18.774;2023-09-18T01:33:37;97507.31;;;20.99;74.47
41044;BME280;51680;49.806;18.774;2023-09-18T01:36:40;97508.97;;;21.00;74.61
41044;BME280;51680;49.806;18.774;2023-09-18T01:39:44;97508.66;;;21.03;74.49
41044;BME280;51680;49.806;18.774;2023-09-18T01:42:47;97500.69;;;21.03;74.18
41044;BME280;51680;49.806;18.774;2023-09-18T01:45:49;97498.34;;;21.00;74.37
41044;BME280;51680;49.806;18.774;2023-09-18T01:48:51;97500.50;;;20.96;74.54
41044;BME280;51680;49.806;18.774;2023-09-18T01:51:53;97503.34;;;21.03;74.28
41044;BME280;51680;49.806;18.774;2023-09-18T01:54:56;97492.69;;;20.95;74.80
41044;BME280;51680;49.806;18.774;2023-09-18T01:57:58;97492.94;;;20.84;74.75
41044;BME280;51680;49.806;18.774;2023-09-18T02:01:00;97488.28;;;20.86;74.88
41044;BME280;51680;49.806;18.774;2023-09-18T02:04:02;97493.31;;;20.89;74.80
41044;BME280;51680;49.806;18.774;2023-09-18T02:07:05;97486.72;;;20.93;74.79
41044;BME280;51680;49.806;18.774;2023-09-18T02:10:09;97497.34;;;21.01;74.45
41044;BME280;51680;49.806;18.774;2023-09-18T02:13:13;97489.22;;;21.02;74.53
41044;BME280;51680;49.806;18.774;2023-09-18T02:16:15;97490.03;;;20.95;74.87
41044;BME280;51680;49.806;18.774;2023-09-18T02:19:17;97492.38;;;20.98;74.71
41044;BME280;51680;49.806;18.774;2023-09-18T02:22:20;97486.72;;;20.93;74.85
41044;BME280;51680;49.806;18.774;2023-09-18T02:25:23;97489.00;;;20.88;74.98
41044;BME280;51680;49.806;18.774;2023-09-18T02:28:25;97479.06;;;20.90;74.78
41044;BME280;51680;49.806;18.774;2023-09-18T02:31:27;97477.97;;;20.75;75.51
41044;BME280;51680;49.806;18.774;2023-09-18T02:34:28;97481.28;;;20.77;75.46
41044;BME280;51680;49.806;18.774;2023-09-18T02:37:32;97478.47;;;20.78;75.34
41044;BME280;51680;49.806;18.774;2023-09-18T02:40:35;97480.66;;;20.83;75.17
41044;BME280;51680;49.806;18.774;2023-09-18T02:43:37;97468.06;;;20.85;75.09
41044;BME280;51680;49.806;18.774;2023-09-18T02:46:41;97470.88;;;20.83;75.19
41044;BME280;51680;49.806;18.774;2023-09-18T02:49:45;97476.97;;;20.76;75.45
41044;BME280;51680;49.806;18.774;2023-09-18T02:52:48;97463.03;;;20.74;75.59
41044;BME280;51680;49.806;18.774;2023-09-18T02:55:51;97465.69;;;20.74;75.58
41044;BME280;51680;49.806;18.774;2023-09-18T02:58:53;97466.31;;;20.68;75.79
41044;BME280;51680;49.806;18.774;2023-09-18T03:01:55;97467.75;;;20.54;76.35
41044;BME280;51680;49.806;18.774;2023-09-18T03:04:57;97464.56;;;20.51;76.53
41044;BME280;51680;49.806;18.774;2023-09-18T03:07:59;97468.16;;;20.42;76.86
41044;BME280;51680;49.806;18.774;2023-09-18T03:11:02;97461.25;;;20.49;76.61
41044;BME280;51680;49.806;18.774;2023-09-18T03:14:04;97461.34;;;20.39;77.11
41044;BME280;51680;49.806;18.774;2023-09-18T03:17:07;97455.75;;;20.42;76.87
41044;BME280;51680;49.806;18.774;2023-09-18T03:20:09;97450.97;;;20.46;76.75
41044;BME280;51680;49.806;18.774;2023-09-18T03:23:11;97453.91;;;20.43;76.92
41044;BME280;51680;49.806;18.774;2023-09-18T03:26:14;97446.88;;;20.26;77.85
41044;BME280;51680;49.806;18.774;2023-09-18T03:29:16;97453.34;;;20.31;77.42
41044;BME280;51680;49.806;18.774;2023-09-18T03:32:18;97449.53;;;20.34;77.15
41044;BME280;51680;49.806;18.774;2023-09-18T03:35:20;97441.91;;;20.31;77.53
41044;BME280;51680;49.806;18.774;2023-09-18T03:38:23;97440.56;;;20.27;77.76
41044;BME280;51680;49.806;18.774;2023-09-18T03:41:26;97442.53;;;20.25;77.95
41044;BME280;51680;49.806;18.774;2023-09-18T03:44:29;97436.25;;;20.26;77.82
41044;BME280;51680;49.806;18.774;2023-09-18T03:47:30;97437.22;;;20.25;77.84
41044;BME280;51680;49.806;18.774;2023-09-18T03:50:33;97423.50;;;20.29;77.80
41044;BME280;51680;49.806;18.774;2023-09-18T03:53:35;97427.16;;;20.28;77.79
41044;BME280;51680;49.806;18.774;2023-09-18T03:56:39;97425.16;;;20.30;77.65
41044;BME280;51680;49.806;18.774;2023-09-18T03:59:41;97423.66;;;20.28;77.79
41044;BME280;51680;49.806;18.774;2023-09-18T04:02:43;97426.66;;;20.33;77.64
41044;BME280;51680;49.806;18.774;2023-09-18T04:05:44;97420.72;;;20.31;77.76
41044;BME280;51680;49.806;18.774;2023-09-18T04:08:46;97421.16;;;20.26;77.84
41044;BME280;51680;49.806;18.774;2023-09-18T04:11:49;97424.66;;;20.27;77.93
41044;BME280;51680;49.806;18.774;2023-09-18T04:14:51;97423.59;;;20.20;78.14
41044;BME280;51680;49.806;18.774;2023-09-18T04:17:53;97416.00;;;20.25;77.92
41044;BME280;51680;49.806;18.774;2023-09-18T04:20:54;97414.91;;;20.27;77.92
41044;BME280;51680;49.806;18.774;2023-09-18T04:23:56;97414.41;;;20.32;77.85
41044;BME280;51680;49.806;18.774;2023-09-18T04:27:00;97401.63;;;20.27;77.85
41044;BME280;51680;49.806;18.774;2023-09-18T04:30:03;97409.75;;;20.26;78.20
41044;BME280;51680;49.806;18.774;2023-09-18T04:33:05;97413.41;;;20.33;77.74
41044;BME280;51680;49.806;18.774;2023-09-18T04:36:07;97408.22;;;20.49;77.23
41044;BME280;51680;49.806;18.774;2023-09-18T04:39:09;97399.97;;;20.68;76.67
41044;BME280;51680;49.806;18.774;2023-09-18T04:42:12;97405.00;;;20.87;75.99
41044;BME280;51680;49.806;18.774;2023-09-18T04:45:14;97408.44;;;20.97;75.48
41044;BME280;51680;49.806;18.774;2023-09-18T04:48:17;97403.50;;;21.18;74.97
41044;BME280;51680;49.806;18.774;2023-09-18T04:51:18;97395.72;;;21.40;74.11
41044;BME280;51680;49.806;18.774;2023-09-18T04:54:20;97388.97;;;21.70;72.99
41044;BME280;51680;49.806;18.774;2023-09-18T04:57:23;97389.94;;;21.77;72.37
41044;BME280;51680;49.806;18.774;2023-09-18T05:00:25;97385.56;;;22.16;71.36
41044;BME280;51680;49.806;18.774;2023-09-18T05:03:28;97392.31;;;22.50;70.09
41044;BME280;51680;49.806;18.774;2023-09-18T05:06:30;97389.97;;;22.55;69.56
41044;BME280;51680;49.806;18.774;2023-09-18T05:09:32;97379.38;;;22.78;68.90
41044;BME280;51680;49.806;18.774;2023-09-18T05:12:38;97379.66;;;22.91;68.47
41044;BME280;51680;49.806;18.774;2023-09-18T05:15:40;97377.41;;;22.80;68.54
41044;BME280;51680;49.806;18.774;2023-09-18T05:18:42;97385.25;;;23.04;67.87
41044;BME280;51680;49.806;18.774;2023-09-18T05:21:44;97383.59;;;23.33;66.89
41044;BME280;51680;49.806;18.774;2023-09-18T05:24:46;97376.69;;;23.47;65.98
41044;BME280;51680;49.806;18.774;2023-09-18T05:27:49;97371.19;;;23.63;65.41
41044;BME280;51680;49.806;18.774;2023-09-18T05:31:14;97366.19;;;24.05;64.39
41044;BME280;51680;49.806;18.774;2023-09-18T05:34:17;97359.38;;;24.17;63.95
41044;BME280;51680;49.806;18.774;2023-09-18T05:37:19;97354.03;;;24.46;63.22
41044;BME280;51680;49.806;18.774;2023-09-18T05:40:20;97351.03;;;24.63;62.56
41044;BME280;51680;49.806;18.774;2023-09-18T05:43:23;97345.25;;;24.95;60.46
41044;BME280;51680;49.806;18.774;2023-09-18T05:46:25;97334.34;;;25.11;61.22
41044;BME280;51680;49.806;18.774;2023-09-18T05:49:26;97329.34;;;25.44;59.25
41044;BME280;51680;49.806;18.774;2023-09-18T05:52:28;97333.50;;;25.11;60.54
41044;BME280;51680;49.806;18.774;2023-09-18T05:55:48;97335.59;;;25.15;61.23
41044;BME280;51680;49.806;18.774;2023-09-18T05:58:51;97337.91;;;24.83;61.11
41044;BME280;51680;49.806;18.774;2023-09-18T06:01:53;97330.13;;;24.67;61.94
41044;BME280;51680;49.806;18.774;2023-09-18T06:04:55;97320.47;;;25.22;60.42
41044;BME280;51680;49.806;18.774;2023-09-18T06:07:58;97308.00;;;25.99;58.49
41044;BME280;51680;49.806;18.774;2023-09-18T06:10:59;97315.88;;;26.07;57.52
41044;BME280;51680;49.806;18.774;2023-09-18T06:14:03;97316.75;;;26.48;55.85
41044;BME280;51680;49.806;18.774;2023-09-18T06:17:04;97321.66;;;26.85;55.71
41044;BME280;51680;49.806;18.774;2023-09-18T06:20:07;97316.78;;;27.08;54.62
41044;BME280;51680;49.806;18.774;2023-09-18T06:23:10;97312.50;;;26.60;54.33
41044;BME280;51680;49.806;18.774;2023-09-18T06:26:13;97315.69;;;26.42;55.76
41044;BME280;51680;49.806;18.774;2023-09-18T06:29:16;97315.00;;;26.61;55.16
41044;BME280;51680;49.806;18.774;2023-09-18T06:32:18;97311.41;;;26.95;54.67
41044;BME280;51680;49.806;18.774;2023-09-18T06:35:20;97315.47;;;27.57;53.44
41044;BME280;51680;49.806;18.774;2023-09-18T06:38:21;97308.03;;;27.72;52.99
41044;BME280;51680;49.806;18.774;2023-09-18T06:41:23;97306.41;;;27.84;52.47
41044;BME280;51680;49.806;18.774;2023-09-18T06:44:27;97299.19;;;27.91;51.85
41044;BME280;51680;49.806;18.774;2023-09-18T06:47:29;97307.44;;;27.90;52.12
41044;BME280;51680;49.806;18.774;2023-09-18T06:50:31;97310.50;;;28.39;51.03
41044;BME280;51680;49.806;18.774;2023-09-18T06:53:32;97308.53;;;28.65;50.08
41044;BME280;51680;49.806;18.774;2023-09-18T06:56:34;97304.28;;;28.89;49.89
41044;BME280;51680;49.806;18.774;2023-09-18T06:59:37;97298.13;;;29.57;48.92
41044;BME280;51680;49.806;18.774;2023-09-18T07:02:38;97292.75;;;29.82;47.89
41044;BME280;51680;49.806;18.774;2023-09-18T07:05:40;97305.94;;;29.65;47.51
41044;BME280;51680;49.806;18.774;2023-09-18T07:08:42;97295.84;;;29.54;46.88
41044;BME280;51680;49.806;18.774;2023-09-18T07:11:44;97308.00;;;29.32;47.94
41044;BME280;51680;49.806;18.774;2023-09-18T07:14:47;97305.69;;;29.91;46.67
41044;BME280;51680;49.806;18.774;2023-09-18T07:17:49;97301.84;;;30.05;46.89
41044;BME280;51680;49.806;18.774;2023-09-18T07:20:50;97300.56;;;30.50;46.09
41044;BME280;51680;49.806;18.774;2023-09-18T07:23:52;97303.84;;;30.52;45.56
41044;BME280;51680;49.806;18.774;2023-09-18T07:26:54;97306.16;;;30.73;44.55
41044;BME280;51680;49.806;18.774;2023-09-18T07:29:59;97303.75;;;30.95;44.13
41044;BME280;51680;49.806;18.774;2023-09-18T07:33:00;97300.38;;;31.17;44.10
41044;BME280;51680;49.806;18.774;2023-09-18T07:36:02;97294.94;;;30.88;45.04
41044;BME280;51680;49.806;18.774;2023-09-18T07:39:05;97293.91;;;31.18;43.41
41044;BME280;51680;49.806;18.774;2023-09-18T07:42:06;97291.25;;;31.00;44.18
41044;BME280;51680;49.806;18.774;2023-09-18T07:45:10;97288.34;;;31.31;43.57
41044;BME280;51680;49.806;18.774;2023-09-18T07:48:11;97285.59;;;31.20;43.74
41044;BME280;51680;49.806;18.774;2023-09-18T07:51:13;97273.44;;;31.29;44.25
41044;BME280;51680;49.806;18.774;2023-09-18T07:54:16;97270.13;;;31.27;43.72
41044;BME280;51680;49.806;18.774;2023-09-18T07:57:18;97272.78;;;30.86;44.29
41044;BME280;51680;49.806;18.774;2023-09-18T08:00:22;97269.50;;;30.48;43.71
41044;BME280;51680;49.806;18.774;2023-09-18T08:03:26;97274.34;;;30.57;44.76
41044;BME280;51680;49.806;18.774;2023-09-18T08:06:28;97277.44;;;31.08;44.14
41044;BME280;51680;49.806;18.774;2023-09-18T08:09:30;97262.00;;;31.56;41.56
41044;BME280;51680;49.806;18.774;2023-09-18T08:12:31;97269.91;;;31.28;43.02
41044;BME280;51680;49.806;18.774;2023-09-18T08:15:35;97266.03;;;31.06;43.33
41044;BME280;51680;49.806;18.774;2023-09-18T08:18:36;97261.63;;;30.64;43.55
41044;BME280;51680;49.806;18.774;2023-09-18T08:21:41;97257.25;;;30.63;43.66
41044;BME280;51680;49.806;18.774;2023-09-18T08:24:43;97266.19;;;30.82;43.60
41044;BME280;51680;49.806;18.774;2023-09-18T08:27:46;97255.69;;;30.92;44.35
41044;BME280;51680;49.806;18.774;2023-09-18T08:30:49;97252.78;;;31.75;42.38
41044;BME280;51680;49.806;18.774;2023-09-18T08:33:50;97251.06;;;31.51;41.91
41044;BME280;51680;49.806;18.774;2023-09-18T08:36:52;97245.75;;;31.86;41.61
41044;BME280;51680;49.806;18.774;2023-09-18T08:39:54;97258.16;;;31.23;40.86
41044;BME280;51680;49.806;18.774;2023-09-18T08:42:56;97250.88;;;31.23;42.13
41044;BME280;51680;49.806;18.774;2023-09-18T08:46:02;97248.75;;;31.66;41.96
41044;BME280;51680;49.806;18.774;2023-09-18T08:49:05;97246.06;;;31.25;42.11
41044;BME280;51680;49.806;18.774;2023-09-18T08:52:08;97249.06;;;31.47;42.05
41044;BME280;51680;49.806;18.774;2023-09-18T08:55:10;97236.13;;;31.37;41.53
41044;BME280;51680;49.806;18.774;2023-09-18T08:58:13;97242.38;;;31.49;41.71
41044;BME280;51680;49.806;18.774;2023-09-18T09:01:21;97228.25;;;31.24;41.64
41044;BME280;51680;49.806;18.774;2023-09-18T09:08:16;97230.91;;;31.65;41.87
41044;BME280;51680;49.806;18.774;2023-09-18T09:11:18;97225.97;;;31.10;42.00
41044;BME280;51680;49.806;18.774;2023-09-18T09:14:20;97227.59;;;30.63;42.34
41044;BME280;51680;49.806;18.774;2023-09-18T09:17:29;97239.31;;;30.75;42.95
41044;BME280;51680;49.806;18.774;2023-09-18T09:20:31;97217.09;;;30.91;40.91
41044;BME280;51680;49.806;18.774;2023-09-18T09:23:45;97247.25;;;30.70;41.28
41044;BME280;51680;49.806;18.774;2023-09-18T09:26:57;97219.38;;;30.58;42.43
41044;BME280;51680;49.806;18.774;2023-09-18T09:29:59;97215.00;;;30.28;42.88
41044;BME280;51680;49.806;18.774;2023-09-18T09:33:04;97217.03;;;30.14;43.63
41044;BME280;51680;49.806;18.774;2023-09-18T09:36:06;97217.06;;;30.62;43.17
41044;BME280;51680;49.806;18.774;2023-09-18T09:39:10;97212.53;;;31.21;42.11
41044;BME280;51680;49.806;18.774;2023-09-18T09:42:16;97205.06;;;31.69;41.97
41044;BME280;51680;49.806;18.774;2023-09-18T09:45:23;97213.06;;;31.64;42.00
41044;BME280;51680;49.806;18.774;2023-09-18T09:48:26;97207.50;;;31.71;41.07
41044;BME280;51680;49.806;18.774;2023-09-18T09:51:28;97215.09;;;30.87;42.59
41044;BME280;51680;49.806;18.774;2023-09-18T09:54:33;97207.59;;;30.23;41.54
41044;BME280;51680;49.806;18.774;2023-09-18T09:57:47;97206.91;;;30.10;42.19
41044;BME280;51680;49.806;18.774;2023-09-18T10:00:51;97203.06;;;29.81;42.96
41044;BME280;51680;49.806;18.774;2023-09-18T10:03:58;97209.81;;;30.08;43.64
41044;BME280;51680;49.806;18.774;2023-09-18T10:07:05;97209.31;;;30.18;41.95
41044;BME280;51680;49.806;18.774;2023-09-18T10:10:08;97208.94;;;30.14;42.95
41044;BME280;51680;49.806;18.774;2023-09-18T10:13:15;97205.25;;;29.91;42.30
41044;BME280;51680;49.806;18.774;2023-09-18T10:16:19;97198.69;;;29.62;43.59
41044;BME280;51680;49.806;18.774;2023-09-18T10:19:31;97201.59;;;29.61;43.67
41044;BME280;51680;49.806;18.774;2023-09-18T10:22:38;97209.34;;;29.75;43.11
41044;BME280;51680;49.806;18.774;2023-09-18T10:25:43;97216.59;;;29.50;44.48
41044;BME280;51680;49.806;18.774;2023-09-18T10:28:46;97203.75;;;28.90;44.20
41044;BME280;51680;49.806;18.774;2023-09-18T10:31:50;97198.16;;;28.98;45.48
41044;BME280;51680;49.806;18.774;2023-09-18T10:34:53;97191.38;;;28.89;45.39
41044;BME280;51680;49.806;18.774;2023-09-18T10:37:57;97192.38;;;29.01;45.51
41044;BME280;51680;49.806;18.774;2023-09-18T10:41:00;97193.97;;;28.71;45.39
41044;BME280;51680;49.806;18.774;2023-09-18T10:44:04;97198.28;;;28.72;45.96
41044;BME280;51680;49.806;18.774;2023-09-18T10:47:07;97192.88;;;28.34;46.04
41044;BME280;51680;49.806;18.774;2023-09-18T10:50:11;97183.22;;;28.20;46.34
41044;BME280;51680;49.806;18.774;2023-09-18T10:53:13;97182.19;;;28.21;46.59
41044;BME280;51680;49.806;18.774;2023-09-18T10:56:15;97181.22;;;28.03;46.58
41044;BME280;51680;49.806;18.774;2023-09-18T10:59:17;97174.81;;;28.10;46.99
41044;BME280;51680;49.806;18.774;2023-09-18T11:02:20;97167.44;;;28.37;47.33
41044;BME280;51680;49.806;18.774;2023-09-18T11:05:32;97172.44;;;27.83;47.35
41044;BME280;51680;49.806;18.774;2023-09-18T11:08:34;97163.75;;;27.68;48.04
41044;BME280;51680;49.806;18.774;2023-09-18T11:11:36;97170.84;;;27.43;47.82
41044;BME280;51680;49.806;18.774;2023-09-18T11:14:46;97181.75;;;27.41;48.16
41044;BME280;51680;49.806;18.774;2023-09-18T11:17:58;97171.25;;;27.33;48.73
41044;BME280;51680;49.806;18.774;2023-09-18T11:21:08;97159.66;;;27.39;48.42
41044;BME280;51680;49.806;18.774;2023-09-18T11:24:15;97162.94;;;27.54;48.53
41044;BME280;51680;49.806;18.774;2023-09-18T11:27:24;97150.63;;;27.21;49.12
41044;BME280;51680;49.806;18.774;2023-09-18T11:30:26;97156.75;;;27.67;48.75
41044;BME280;51680;49.806;18.774;2023-09-18T11:33:32;97154.28;;;27.65;48.58
41044;BME280;51680;49.806;18.774;2023-09-18T11:36:35;97152.59;;;27.71;48.54
41044;BME280;51680;49.806;18.774;2023-09-18T11:39:38;97155.97;;;27.40;51.13
41044;BME280;51680;49.806;18.774;2023-09-18T11:43:21;97151.63;;;27.46;48.59
41044;BME280;51680;49.806;18.774;2023-09-18T11:46:26;97138.84;;;27.28;48.99
41044;BME280;51680;49.806;18.774;2023-09-18T11:49:31;97142.97;;;27.50;49.17
41044;BME280;51680;49.806;18.774;2023-09-18T11:52:34;97144.34;;;27.66;49.39
41044;BME280;51680;49.806;18.774;2023-09-18T11:55:37;97137.31;;;27.78;49.23
41044;BME280;51680;49.806;18.774;2023-09-18T11:58:58;97139.72;;;27.99;48.97
41044;BME280;51680;49.806;18.774;2023-09-18T12:02:00;97131.81;;;28.17;48.96
41044;BME280;51680;49.806;18.774;2023-09-18T12:05:10;97129.25;;;27.91;49.55
41044;BME280;51680;49.806;18.774;2023-09-18T12:08:13;97126.13;;;27.94;49.84
41044;BME280;51680;49.806;18.774;2023-09-18T12:11:15;97123.53;;;27.61;48.62
41044;BME280;51680;49.806;18.774;2023-09-18T12:14:20;97116.56;;;27.41;49.50
41044;BME280;51680;49.806;18.774;2023-09-18T12:17:22;97112.44;;;27.45;49.13
41044;BME280;51680;49.806;18.774;2023-09-18T12:20:24;97115.47;;;27.68;49.60
41044;BME280;51680;49.806;18.774;2023-09-18T12:23:27;97115.09;;;27.58;48.68
41044;BME280;51680;49.806;18.774;2023-09-18T12:26:29;97111.28;;;27.85;48.64
41044;BME280;51680;49.806;18.774;2023-09-18T12:29:31;97108.41;;;27.73;48.22
41044;BME280;51680;49.806;18.774;2023-09-18T12:32:36;97089.88;;;27.72;48.34
41044;BME280;51680;49.806;18.774;2023-09-18T12:35:40;97095.63;;;27.69;47.99
41044;BME280;51680;49.806;18.774;2023-09-18T12:38:43;97091.50;;;27.79;48.50
41044;BME280;51680;49.806;18.774;2023-09-18T12:41:45;97095.56;;;27.95;47.88
41044;BME280;51680;49.806;18.774;2023-09-18T12:44:48;97103.28;;;27.72;47.16
41044;BME280;51680;49.806;18.774;2023-09-18T12:47:51;97085.41;;;27.46;47.81
41044;BME280;51680;49.806;18.774;2023-09-18T12:50:53;97096.75;;;27.35;47.91
41044;BME280;51680;49.806;18.774;2023-09-18T12:54:00;97095.47;;;27.51;48.34
41044;BME280;51680;49.806;18.774;2023-09-18T12:57:07;97094.69;;;27.50;48.23
41044;BME280;51680;49.806;18.774;2023-09-18T13:00:10;97089.53;;;27.36;48.08
41044;BME280;51680;49.806;18.774;2023-09-18T13:03:13;97080.03;;;27.46;48.05
41044;BME280;51680;49.806;18.774;2023-09-18T13:06:16;97076.31;;;27.41;48.53
41044;BME280;51680;49.806;18.774;2023-09-18T13:09:20;97083.53;;;27.47;48.46
41044;BME280;51680;49.806;18.774;2023-09-18T13:12:23;97087.25;;;27.46;48.01
41044;BME280;51680;49.806;18.774;2023-09-18T13:15:25;97079.63;;;27.43;48.13
41044;BME280;51680;49.806;18.774;2023-09-18T13:18:28;97088.72;;;27.35;48.70
41044;BME280;51680;49.806;18.774;2023-09-18T13:21:30;97073.84;;;27.46;48.99
41044;BME280;51680;49.806;18.774;2023-09-18T13:24:33;97074.69;;;27.40;48.84
41044;BME280;51680;49.806;18.774;2023-09-18T13:27:35;97070.94;;;27.54;48.22
41044;BME280;51680;49.806;18.774;2023-09-18T13:30:38;97065.59;;;27.41;48.53
41044;BME280;51680;49.806;18.774;2023-09-18T13:33:40;97062.91;;;27.47;48.07
41044;BME280;51680;49.806;18.774;2023-09-18T13:36:45;97060.59;;;27.51;47.09
41044;BME280;51680;49.806;18.774;2023-09-18T13:39:48;97054.78;;;27.67;47.82
41044;BME280;51680;49.806;18.774;2023-09-18T13:42:50;97057.72;;;27.52;47.13
41044;BME280;51680;49.806;18.774;2023-09-18T13:45:51;97050.94;;;27.43;47.06
41044;BME280;51680;49.806;18.774;2023-09-18T13:48:55;97047.44;;;27.43;46.70
41044;BME280;51680;49.806;18.774;2023-09-18T13:51:57;97037.16;;;27.27;46.86
41044;BME280;51680;49.806;18.774;2023-09-18T13:55:02;97032.63;;;27.34;47.26
41044;BME280;51680;49.806;18.774;2023-09-18T13:58:05;97029.75;;;27.03;47.43
41044;BME280;51680;49.806;18.774;2023-09-18T14:01:07;97027.28;;;27.01;48.17
41044;BME280;51680;49.806;18.774;2023-09-18T14:04:09;97028.50;;;27.12;47.98
41044;BME280;51680;49.806;18.774;2023-09-18T14:07:11;97029.97;;;27.21;48.30
41044;BME280;51680;49.806;18.774;2023-09-18T14:10:15;97018.66;;;27.19;47.47
41044;BME280;51680;49.806;18.774;2023-09-18T14:13:17;97020.28;;;27.07;47.92
41044;BME280;51680;49.806;18.774;2023-09-18T14:16:19;97015.53;;;27.22;48.49
41044;BME280;51680;49.806;18.774;2023-09-18T14:19:21;97016.16;;;27.11;48.36
41044;BME280;51680;49.806;18.774;2023-09-18T14:22:22;97013.69;;;27.22;47.93
41044;BME280;51680;49.806;18.774;2023-09-18T14:25:25;97013.22;;;27.25;48.10
41044;BME280;51680;49.806;18.774;2023-09-18T14:28:27;97008.72;;;27.19;47.92
41044;BME280;51680;49.806;18.774;2023-09-18T14:31:29;97005.44;;;27.11;48.37
41044;BME280;51680;49.806;18.774;2023-09-18T14:34:31;97009.16;;;27.10;48.41
41044;BME280;51680;49.806;18.774;2023-09-18T14:37:36;97004.38;;;27.12;48.51
41044;BME280;51680;49.806;18.774;2023-09-18T14:40:44;97002.56;;;27.06;48.85
41044;BME280;51680;49.806;18.774;2023-09-18T14:43:47;97003.19;;;26.95;48.76
41044;BME280;51680;49.806;18.774;2023-09-18T14:46:49;96991.00;;;27.05;49.13
41044;BME280;51680;49.806;18.774;2023-09-18T14:49:51;96991.63;;;27.01;49.51
41044;BME280;51680;49.806;18.774;2023-09-18T14:52:52;96988.97;;;26.88;49.28
41044;BME280;51680;49.806;18.774;2023-09-18T14:55:55;96991.06;;;26.73;49.70
41044;BME280;51680;49.806;18.774;2023-09-18T14:58:58;96990.22;;;26.79;50.02
41044;BME280;51680;49.806;18.774;2023-09-18T15:02:00;96979.31;;;26.61;49.89
41044;BME280;51680;49.806;18.774;2023-09-18T15:05:04;96978.69;;;26.52;50.11
41044;BME280;51680;49.806;18.774;2023-09-18T15:08:10;96981.16;;;26.41;50.57
41044;BME280;51680;49.806;18.774;2023-09-18T15:11:13;96979.72;;;26.38;50.87
41044;BME280;51680;49.806;18.774;2023-09-18T15:14:17;96976.63;;;26.35;50.79
41044;BME280;51680;49.806;18.774;2023-09-18T15:17:19;96977.47;;;26.29;50.96
41044;BME280;51680;49.806;18.774;2023-09-18T15:20:20;96974.78;;;26.22;51.70
41044;BME280;51680;49.806;18.774;2023-09-18T15:23:24;96976.63;;;26.09;51.31
41044;BME280;51680;49.806;18.774;2023-09-18T15:26:27;96979.84;;;25.85;51.40
41044;BME280;51680;49.806;18.774;2023-09-18T15:29:29;96971.19;;;25.83;51.53
41044;BME280;51680;49.806;18.774;2023-09-18T15:32:45;96977.75;;;25.74;52.06
41044;BME280;51680;49.806;18.774;2023-09-18T15:35:48;96969.50;;;25.69;52.06
41044;BME280;51680;49.806;18.774;2023-09-18T15:38:50;96961.91;;;25.72;52.07
41044;BME280;51680;49.806;18.774;2023-09-18T15:41:53;96957.59;;;25.78;51.89
41044;BME280;51680;49.806;18.774;2023-09-18T15:44:55;96959.03;;;25.74;52.48
41044;BME280;51680;49.806;18.774;2023-09-18T15:47:57;96959.66;;;25.69;52.17
41044;BME280;51680;49.806;18.774;2023-09-18T15:50:59;96960.44;;;25.57;52.11
41044;BME280;51680;49.806;18.774;2023-09-18T15:54:00;96958.34;;;25.46;52.49
41044;BME280;51680;49.806;18.774;2023-09-18T15:57:05;96950.13;;;25.47;52.70
41044;BME280;51680;49.806;18.774;2023-09-18T16:00:08;96953.19;;;25.38;52.88
41044;BME280;51680;49.806;18.774;2023-09-18T16:03:13;96944.94;;;25.33;52.81